createdAt,value
2023-12-18T00:01:10.727Z,100.00
2023-12-18T00:03:37.383Z,100.00
2023-12-18T00:06:04.519Z,100.00
2023-12-18T00:08:31.006Z,100.00
2023-12-18T00:10:57.631Z,100.00
2023-12-18T00:13:24.116Z,100.00
2023-12-18T00:15:50.601Z,100.00
2023-12-18T00:18:17.341Z,100.00
2023-12-18T00:20:43.870Z,100.00
2023-12-18T00:23:10.545Z,100.00
2023-12-18T00:25:37.031Z,100.00
2023-12-18T00:28:03.883Z,100.00
2023-12-18T00:30:30.629Z,100.00
2023-12-18T00:32:57.290Z,100.00
2023-12-18T00:35:24.117Z,100.00
2023-12-18T00:37:50.731Z,100.00
2023-12-18T00:40:17.189Z,100.00
2023-12-18T00:42:44.001Z,100.00
2023-12-18T00:45:10.552Z,100.00
2023-12-18T00:47:37.110Z,100.00
2023-12-18T00:50:07.670Z,100.00
2023-12-18T00:52:36.160Z,100.00
2023-12-18T00:55:03.950Z,100.00
2023-12-18T00:57:30.470Z,100.00
2023-12-18T00:59:57.149Z,100.00
2023-12-18T01:02:23.667Z,100.00
2023-12-18T01:04:50.161Z,100.00
2023-12-18T01:07:16.801Z,100.00
2023-12-18T01:09:43.487Z,100.00
2023-12-18T01:12:10.284Z,100.00
2023-12-18T01:14:37.092Z,100.00
2023-12-18T01:17:03.623Z,100.00
2023-12-18T01:19:30.731Z,100.00
2023-12-18T01:21:57.241Z,100.00
2023-12-18T01:24:25.974Z,100.00
2023-12-18T01:26:52.588Z,100.00
2023-12-18T01:29:19.033Z,100.00
2023-12-18T01:31:45.517Z,100.00
2023-12-18T01:34:12.289Z,100.00
2023-12-18T01:36:38.968Z,100.00
2023-12-18T01:39:05.597Z,100.00
2023-12-18T01:41:32.228Z,100.00
2023-12-18T01:43:58.762Z,100.00
2023-12-18T01:46:26.144Z,100.00
2023-12-18T01:48:53.602Z,100.00
2023-12-18T01:51:21.461Z,100.00
2023-12-18T01:53:49.945Z,100.00
2023-12-18T01:56:21.503Z,100.00
2023-12-18T01:58:48.116Z,100.00
2023-12-18T02:01:15.056Z,100.00
2023-12-18T02:03:42.357Z,100.00
2023-12-18T02:06:09.107Z,100.00
2023-12-18T02:08:36.188Z,100.00
2023-12-18T02:11:02.918Z,100.00
2023-12-18T02:13:29.470Z,100.00
2023-12-18T02:15:56.010Z,100.00
2023-12-18T02:18:22.752Z,100.00
2023-12-18T02:20:49.359Z,100.00
2023-12-18T02:23:15.880Z,100.00
2023-12-18T02:25:42.500Z,100.00
2023-12-18T02:28:11.517Z,100.00
2023-12-18T02:30:38.251Z,100.00
2023-12-18T02:33:05.392Z,100.00
2023-12-18T02:35:32.008Z,100.00
2023-12-18T02:37:58.712Z,100.00
2023-12-18T02:40:26.413Z,100.00
2023-12-18T02:42:53.620Z,100.00
2023-12-18T02:45:20.318Z,100.00
2023-12-18T02:47:47.225Z,100.00
2023-12-18T02:50:14.365Z,100.00
2023-12-18T02:52:40.988Z,100.00
2023-12-18T02:55:08.539Z,100.00
2023-12-18T02:57:35.025Z,100.00
2023-12-18T03:00:01.793Z,100.00
2023-12-18T03:02:28.410Z,100.00
2023-12-18T03:04:54.951Z,100.00
2023-12-18T03:07:21.690Z,100.00
2023-12-18T03:09:48.238Z,100.00
2023-12-18T03:12:14.825Z,100.00
2023-12-18T03:14:41.429Z,100.00
2023-12-18T03:17:07.954Z,100.00
2023-12-18T03:19:34.871Z,100.00
2023-12-18T03:22:01.668Z,100.00
2023-12-18T03:24:28.150Z,100.00
2023-12-18T03:26:54.758Z,100.00
2023-12-18T03:29:21.514Z,100.00
2023-12-18T03:31:48.232Z,100.00
2023-12-18T03:34:14.829Z,100.00
2023-12-18T03:36:41.427Z,100.00
2023-12-18T03:39:08.050Z,100.00
2023-12-18T03:41:34.487Z,100.00
2023-12-18T03:44:00.925Z,100.00
2023-12-18T03:46:27.481Z,100.00
2023-12-18T03:48:54.068Z,100.00
2023-12-18T03:51:20.826Z,100.00
2023-12-18T03:53:47.297Z,100.00
2023-12-18T03:56:13.716Z,100.00
2023-12-18T03:58:40.342Z,100.00
2023-12-18T04:01:06.975Z,100.00
2023-12-18T04:03:34.545Z,100.00
2023-12-18T04:06:01.851Z,100.00
2023-12-18T04:08:28.365Z,100.00
2023-12-18T04:10:54.816Z,100.00
2023-12-18T04:13:21.589Z,100.00
2023-12-18T04:15:48.467Z,100.00
2023-12-18T04:18:15.128Z,100.00
2023-12-18T04:20:41.835Z,100.00
2023-12-18T04:23:08.405Z,100.00
2023-12-18T04:25:35.582Z,100.00
2023-12-18T04:28:02.179Z,100.00
2023-12-18T04:30:56.720Z,100.00
2023-12-18T04:33:23.788Z,100.00
2023-12-18T04:35:50.390Z,100.00
2023-12-18T04:38:17.784Z,100.00
2023-12-18T04:40:44.276Z,100.00
2023-12-18T04:43:10.875Z,100.00
2023-12-18T04:45:37.440Z,100.00
2023-12-18T04:48:04.452Z,100.00
2023-12-18T04:50:31.203Z,100.00
2023-12-18T04:52:57.701Z,100.00
2023-12-18T04:55:24.270Z,100.00
2023-12-18T04:57:50.784Z,100.00
2023-12-18T05:00:17.592Z,100.00
2023-12-18T05:02:44.283Z,100.00
2023-12-18T05:05:11.164Z,100.00
2023-12-18T05:07:37.679Z,100.00
2023-12-18T05:10:04.525Z,100.00
2023-12-18T05:12:31.264Z,100.00
2023-12-18T05:14:59.463Z,100.00
2023-12-18T05:17:28.993Z,100.00
2023-12-18T05:19:55.469Z,100.00
2023-12-18T05:22:22.160Z,100.00
2023-12-18T05:24:48.737Z,100.00
2023-12-18T05:27:15.386Z,100.00
2023-12-18T05:29:42.009Z,100.00
2023-12-18T05:32:08.566Z,100.00
2023-12-18T05:34:35.428Z,100.00
2023-12-18T05:37:03.331Z,100.00
2023-12-18T05:39:29.988Z,100.00
2023-12-18T05:41:56.686Z,100.00
2023-12-18T05:44:23.233Z,100.00
2023-12-18T05:46:49.923Z,100.00
2023-12-18T05:49:19.433Z,100.00
2023-12-18T05:51:46.167Z,100.00
2023-12-18T05:54:12.790Z,100.00
2023-12-18T05:56:39.479Z,100.00
2023-12-18T05:59:05.971Z,100.00
2023-12-18T06:01:32.522Z,100.00
2023-12-18T06:03:59.268Z,100.00
2023-12-18T06:06:25.845Z,100.00
2023-12-18T06:08:52.501Z,100.00
2023-12-18T06:11:19.004Z,100.00
2023-12-18T06:13:45.831Z,100.00
2023-12-18T06:16:12.380Z,100.00
2023-12-18T06:18:39.709Z,100.00
2023-12-18T06:21:07.167Z,100.00
2023-12-18T06:23:33.829Z,100.00
2023-12-18T06:26:03.373Z,100.00
2023-12-18T06:28:30.398Z,100.00
2023-12-18T06:30:57.607Z,100.00
2023-12-18T06:33:24.424Z,100.00
2023-12-18T06:35:51.193Z,100.00
2023-12-18T06:38:17.794Z,100.00
2023-12-18T06:40:44.317Z,100.00
2023-12-18T06:43:10.938Z,100.00
2023-12-18T06:45:37.434Z,100.00
2023-12-18T06:48:10.412Z,100.00
2023-12-18T06:50:37.009Z,100.00
2023-12-18T06:53:03.540Z,100.00
2023-12-18T06:55:30.463Z,100.00
2023-12-18T06:57:56.991Z,100.00
2023-12-18T07:00:35.674Z,100.00
2023-12-18T07:03:07.787Z,100.00
2023-12-18T07:05:34.624Z,100.00
2023-12-18T07:08:01.366Z,100.00
2023-12-18T07:10:28.034Z,100.00
2023-12-18T07:12:54.824Z,100.00
2023-12-18T07:15:25.223Z,100.00
2023-12-18T07:17:52.710Z,100.00
2023-12-18T07:20:19.493Z,100.00
2023-12-18T07:22:46.812Z,100.00
2023-12-18T07:25:13.277Z,100.00
2023-12-18T07:27:40.164Z,100.00
2023-12-18T07:30:07.244Z,100.00
2023-12-18T07:32:34.377Z,100.00
2023-12-18T07:35:02.530Z,100.00
2023-12-18T07:37:29.994Z,100.00
2023-12-18T07:39:57.260Z,100.00
2023-12-18T07:42:24.673Z,100.00
2023-12-18T07:44:54.238Z,100.00
2023-12-18T07:47:20.772Z,100.00
2023-12-18T07:49:50.864Z,100.00
2023-12-18T07:52:18.428Z,100.00
2023-12-18T07:54:45.199Z,100.00
2023-12-18T07:57:12.077Z,100.00
2023-12-18T07:59:40.812Z,100.00
2023-12-18T08:02:08.540Z,100.00
2023-12-18T08:04:36.452Z,100.00
2023-12-18T08:07:04.404Z,100.00
2023-12-18T08:09:31.148Z,100.00
2023-12-18T08:11:58.317Z,100.00
2023-12-18T08:14:24.969Z,100.00
2023-12-18T08:16:52.160Z,100.00
2023-12-18T08:19:19.274Z,100.00
2023-12-18T08:21:45.994Z,100.00
2023-12-18T08:24:12.616Z,100.00
2023-12-18T08:26:39.252Z,100.00
2023-12-18T08:29:07.818Z,100.00
2023-12-18T08:31:35.770Z,100.00
2023-12-18T08:34:02.612Z,100.00
2023-12-18T08:36:31.471Z,100.00
2023-12-18T08:38:58.024Z,100.00
2023-12-18T08:41:24.625Z,100.00
2023-12-18T08:43:58.671Z,100.00
2023-12-18T08:46:32.183Z,100.00
2023-12-18T08:48:59.131Z,100.00
2023-12-18T08:51:25.698Z,100.00
2023-12-18T08:53:52.954Z,100.00
2023-12-18T08:56:19.616Z,100.00
2023-12-18T08:58:46.477Z,100.00
2023-12-18T09:01:13.199Z,100.00
2023-12-18T09:03:39.825Z,100.00
2023-12-18T09:06:06.572Z,100.00
2023-12-18T09:08:40.988Z,100.00
2023-12-18T09:11:09.113Z,100.00
2023-12-18T09:13:39.509Z,100.00
2023-12-18T09:16:06.921Z,100.00
2023-12-18T09:18:34.283Z,100.00
2023-12-18T09:21:01.680Z,100.00
2023-12-18T09:23:29.637Z,100.00
2023-12-18T09:25:56.822Z,100.00
2023-12-18T09:28:23.606Z,100.00
2023-12-18T09:30:50.341Z,100.00
2023-12-18T09:33:17.200Z,100.00
2023-12-18T09:35:44.343Z,100.00
2023-12-18T09:38:10.927Z,100.00
2023-12-18T09:40:37.740Z,100.00
2023-12-18T09:43:05.173Z,100.00
2023-12-18T09:45:32.374Z,100.00
2023-12-18T09:47:59.906Z,100.00
2023-12-18T09:50:26.770Z,100.00
2023-12-18T09:53:08.130Z,100.00
2023-12-18T09:55:35.974Z,100.00
2023-12-18T09:58:03.763Z,100.00
2023-12-18T10:00:30.466Z,100.00
2023-12-18T10:02:59.737Z,100.00
2023-12-18T10:05:27.161Z,100.00
2023-12-18T10:07:55.048Z,100.00
2023-12-18T10:10:22.320Z,100.00
2023-12-18T10:12:49.193Z,100.00
2023-12-18T10:15:15.866Z,100.00
2023-12-18T10:17:43.626Z,100.00
2023-12-18T10:20:11.620Z,100.00
2023-12-18T10:22:40.335Z,100.00
2023-12-18T10:25:07.458Z,99.36
2023-12-18T10:27:35.099Z,98.22
2023-12-18T10:30:01.941Z,99.14
2023-12-18T10:32:28.986Z,100.00
2023-12-18T10:34:56.866Z,100.00
2023-12-18T10:37:26.692Z,100.00
2023-12-18T10:39:56.203Z,100.00
2023-12-18T10:42:32.972Z,100.00
2023-12-18T10:45:03.148Z,100.00
2023-12-18T10:47:32.215Z,100.00
2023-12-18T10:50:02.119Z,100.00
2023-12-18T10:52:33.293Z,100.00
2023-12-18T10:55:08.940Z,100.00
2023-12-18T10:57:38.413Z,100.00
2023-12-18T11:00:09.530Z,100.00
2023-12-18T11:02:39.184Z,100.00
2023-12-18T11:05:07.348Z,100.00
2023-12-18T11:07:34.544Z,100.00
2023-12-18T11:10:01.605Z,100.00
2023-12-18T11:12:29.280Z,100.00
2023-12-18T11:15:17.337Z,100.00
2023-12-18T11:18:29.335Z,99.06
2023-12-18T11:20:58.751Z,96.21
2023-12-18T11:23:28.384Z,96.21
2023-12-18T11:25:56.127Z,95.62
2023-12-18T11:28:26.340Z,96.03
2023-12-18T11:31:01.593Z,93.60
2023-12-18T11:33:36.102Z,92.10
2023-12-18T11:36:11.354Z,92.71
2023-12-18T11:38:37.981Z,90.22
2023-12-18T11:41:04.958Z,90.13
2023-12-18T11:43:42.387Z,90.07
2023-12-18T11:46:18.310Z,86.77
2023-12-18T11:48:47.719Z,87.54
2023-12-18T11:51:15.043Z,89.23
2023-12-18T11:53:41.800Z,88.03
2023-12-18T11:56:13.228Z,87.89
2023-12-18T11:58:45.430Z,86.22
2023-12-18T12:01:13.733Z,87.11
2023-12-18T12:03:41.543Z,86.50
2023-12-18T12:06:09.653Z,87.29
2023-12-18T12:09:02.816Z,87.89
2023-12-18T12:11:29.533Z,88.63
2023-12-18T12:13:56.146Z,87.54
2023-12-18T12:16:23.221Z,86.11
2023-12-18T12:18:52.277Z,86.92
2023-12-18T12:21:19.600Z,85.59
2023-12-18T12:23:48.537Z,86.28
2023-12-18T12:26:17.794Z,86.13
2023-12-18T12:28:44.416Z,85.46
2023-12-18T12:31:11.729Z,84.86
2023-12-18T12:33:42.615Z,84.91
2023-12-18T12:36:10.163Z,80.98
2023-12-18T12:38:44.830Z,78.23
2023-12-18T12:41:11.838Z,76.46
2023-12-18T12:43:38.467Z,77.65
2023-12-18T12:46:06.916Z,78.67
2023-12-18T12:48:36.392Z,79.54
2023-12-18T12:51:03.575Z,79.47
2023-12-18T12:53:31.851Z,77.72
2023-12-18T12:56:00.188Z,76.75
2023-12-18T12:58:26.933Z,73.75
2023-12-18T13:00:53.543Z,73.01
2023-12-18T13:03:20.871Z,73.67
2023-12-18T13:05:48.417Z,73.60
2023-12-18T13:08:15.138Z,73.57
2023-12-18T13:10:41.615Z,73.10
2023-12-18T13:13:09.118Z,71.21
2023-12-18T13:15:36.693Z,72.48
2023-12-18T13:18:03.605Z,73.07
2023-12-18T13:20:30.521Z,73.57
2023-12-18T13:22:57.595Z,74.05
2023-12-18T13:25:24.473Z,73.11
2023-12-18T13:27:52.023Z,72.48
2023-12-18T13:30:18.901Z,72.82
2023-12-18T13:32:46.164Z,71.82
2023-12-18T13:35:13.115Z,72.58
2023-12-18T13:37:39.980Z,72.44
2023-12-18T13:40:07.189Z,74.00
2023-12-18T13:42:33.805Z,75.75
2023-12-18T13:45:03.066Z,77.54
2023-12-18T13:47:30.344Z,78.17
2023-12-18T13:49:57.188Z,79.54
2023-12-18T13:52:25.732Z,81.51
2023-12-18T13:54:52.854Z,83.79
2023-12-18T13:57:19.927Z,83.99
2023-12-18T13:59:46.493Z,85.11
2023-12-18T14:02:13.169Z,85.62
2023-12-18T14:04:39.737Z,85.48
2023-12-18T14:07:07.136Z,86.27
2023-12-18T14:09:33.692Z,85.94
2023-12-18T14:12:00.399Z,84.53
2023-12-18T14:14:26.982Z,82.25
2023-12-18T14:16:53.610Z,79.70
2023-12-18T14:19:20.174Z,80.42
2023-12-18T14:21:46.813Z,80.57
2023-12-18T14:24:14.862Z,80.99
2023-12-18T14:26:42.562Z,80.71
2023-12-18T14:29:09.081Z,80.36
2023-12-18T14:31:35.641Z,81.07
2023-12-18T14:34:02.535Z,81.01
2023-12-18T14:36:30.476Z,81.13
2023-12-18T14:38:57.144Z,81.80
2023-12-18T14:41:24.420Z,81.60
2023-12-18T14:43:51.169Z,82.35
2023-12-18T14:46:17.892Z,82.60
2023-12-18T14:48:44.763Z,83.04
2023-12-18T14:51:11.537Z,82.43
2023-12-18T14:53:38.584Z,82.47
2023-12-18T14:56:06.019Z,81.65
2023-12-18T14:58:35.430Z,81.31
2023-12-18T15:01:02.162Z,80.92
2023-12-18T15:03:28.870Z,81.29
2023-12-18T15:05:55.712Z,83.67
2023-12-18T15:08:22.312Z,83.79
2023-12-18T15:10:49.005Z,85.16
2023-12-18T15:13:15.543Z,86.84
2023-12-18T15:15:42.253Z,87.97
2023-12-18T15:18:08.910Z,86.56
2023-12-18T15:20:35.569Z,86.49
2023-12-18T15:23:02.174Z,86.80
2023-12-18T15:25:28.654Z,86.86
2023-12-18T15:27:56.313Z,87.11
2023-12-18T15:30:24.239Z,86.94
2023-12-18T15:32:51.389Z,87.41
2023-12-18T15:35:19.961Z,87.12
2023-12-18T15:37:46.725Z,87.21
2023-12-18T15:40:13.505Z,87.03
2023-12-18T15:42:41.102Z,87.91
2023-12-18T15:45:08.634Z,89.27
2023-12-18T15:47:35.338Z,90.35
2023-12-18T15:50:02.486Z,89.88
2023-12-18T15:52:29.265Z,89.57
2023-12-18T15:54:56.072Z,89.45
2023-12-18T15:57:25.292Z,90.19
2023-12-18T15:59:52.356Z,90.72
2023-12-18T16:02:19.872Z,90.81
2023-12-18T16:04:46.685Z,92.14
2023-12-18T16:07:13.726Z,91.91
2023-12-18T16:09:40.380Z,91.87
2023-12-18T16:12:07.555Z,91.80
2023-12-18T16:14:36.144Z,91.44
2023-12-18T16:17:04.179Z,90.60
2023-12-18T16:19:30.742Z,92.64
2023-12-18T16:21:57.469Z,92.84
2023-12-18T16:24:24.077Z,93.13
2023-12-18T16:26:50.741Z,93.98
2023-12-18T16:29:17.347Z,95.17
2023-12-18T16:31:44.259Z,95.16
2023-12-18T16:34:11.197Z,95.88
2023-12-18T16:36:38.135Z,94.88
2023-12-18T16:39:05.093Z,93.97
2023-12-18T16:41:33.960Z,94.50
2023-12-18T16:44:00.755Z,94.63
2023-12-18T16:46:32.694Z,95.07
2023-12-18T16:49:06.675Z,95.45
2023-12-18T16:51:33.558Z,97.75
2023-12-18T16:54:00.237Z,97.12
2023-12-18T16:56:26.787Z,98.63
2023-12-18T16:58:53.308Z,98.85
2023-12-18T17:01:23.077Z,98.39
2023-12-18T17:03:50.645Z,97.91
2023-12-18T17:06:18.096Z,97.79
2023-12-18T17:08:44.722Z,97.76
2023-12-18T17:11:12.065Z,97.92
2023-12-18T17:13:39.036Z,97.55
2023-12-18T17:16:06.086Z,97.69
2023-12-18T17:18:32.840Z,97.51
2023-12-18T17:21:01.932Z,96.86
2023-12-18T17:23:28.564Z,97.33
2023-12-18T17:25:55.275Z,97.84
2023-12-18T17:28:24.377Z,98.48
2023-12-18T17:30:51.362Z,98.28
2023-12-18T17:33:19.955Z,98.33
2023-12-18T17:35:46.795Z,98.16
2023-12-18T17:38:13.421Z,97.34
2023-12-18T17:40:39.930Z,97.68
2023-12-18T17:43:06.819Z,99.29
2023-12-18T17:45:33.344Z,99.75
2023-12-18T17:48:00.158Z,99.94
2023-12-18T17:50:26.726Z,100.00
2023-12-18T17:52:53.464Z,100.00
2023-12-18T17:55:20.610Z,100.00
2023-12-18T17:57:47.569Z,100.00
2023-12-18T18:00:14.904Z,100.00
2023-12-18T18:02:42.595Z,100.00
2023-12-18T18:05:10.681Z,100.00
2023-12-18T18:07:40.269Z,100.00
2023-12-18T18:10:08.595Z,100.00
2023-12-18T18:12:35.178Z,100.00
2023-12-18T18:15:02.122Z,100.00
2023-12-18T18:17:28.796Z,100.00
2023-12-18T18:19:55.625Z,100.00
2023-12-18T18:22:22.248Z,100.00
2023-12-18T18:24:49.272Z,100.00
2023-12-18T18:27:17.397Z,100.00
2023-12-18T18:29:45.862Z,100.00
2023-12-18T18:32:12.654Z,100.00
2023-12-18T18:34:40.730Z,100.00
2023-12-18T18:37:07.505Z,100.00
2023-12-18T18:39:34.053Z,100.00
2023-12-18T18:42:00.701Z,100.00
2023-12-18T18:44:27.214Z,100.00
2023-12-18T18:46:54.487Z,100.00
2023-12-18T18:49:21.300Z,99.88
2023-12-18T18:51:47.986Z,99.46
2023-12-18T18:54:14.643Z,98.34
2023-12-18T18:56:41.542Z,96.13
2023-12-18T18:59:08.434Z,97.60
2023-12-18T19:01:37.959Z,97.92
2023-12-18T19:04:05.867Z,98.44
2023-12-18T19:06:32.590Z,98.32
2023-12-18T19:08:59.301Z,99.04
2023-12-18T19:11:26.837Z,99.43
2023-12-18T19:13:53.910Z,99.61
2023-12-18T19:16:20.581Z,99.38
2023-12-18T19:18:47.442Z,99.62
2023-12-18T19:21:14.076Z,100.00
2023-12-18T19:23:40.900Z,98.72
2023-12-18T19:26:07.409Z,97.50
2023-12-18T19:28:33.867Z,98.33
2023-12-18T19:31:03.957Z,96.93
2023-12-18T19:33:31.384Z,99.16
2023-12-18T19:36:00.003Z,99.07
2023-12-18T19:38:26.770Z,99.88
2023-12-18T19:40:53.859Z,100.00
2023-12-18T19:43:20.396Z,100.00
2023-12-18T19:45:47.076Z,99.73
2023-12-18T19:48:13.695Z,99.41
2023-12-18T19:50:40.529Z,97.96
2023-12-18T19:53:09.298Z,97.58
2023-12-18T19:55:36.281Z,96.55
2023-12-18T19:58:03.791Z,96.80
2023-12-18T20:00:30.599Z,96.84
2023-12-18T20:02:57.273Z,96.17
2023-12-18T20:05:24.124Z,97.80
2023-12-18T20:07:51.818Z,97.54
2023-12-18T20:10:18.482Z,96.30
2023-12-18T20:12:45.450Z,96.64
2023-12-18T20:15:12.928Z,96.97
2023-12-18T20:17:39.759Z,96.47
2023-12-18T20:20:06.768Z,94.97
2023-12-18T20:22:33.603Z,97.14
2023-12-18T20:25:00.312Z,96.26
2023-12-18T20:27:28.802Z,95.59
2023-12-18T20:29:55.654Z,94.61
2023-12-18T20:32:22.188Z,94.65
2023-12-18T20:34:48.981Z,94.71
2023-12-18T20:37:15.590Z,94.42
2023-12-18T20:39:42.237Z,94.34
2023-12-18T20:42:08.933Z,95.24
2023-12-18T20:44:35.467Z,95.15
2023-12-18T20:47:04.955Z,94.70
2023-12-18T20:49:33.077Z,95.12
2023-12-18T20:51:59.832Z,93.81
2023-12-18T20:54:26.410Z,92.82
2023-12-18T20:56:53.122Z,92.13
2023-12-18T20:59:19.608Z,92.01
2023-12-18T21:01:46.567Z,91.99
2023-12-18T21:04:13.318Z,93.00
2023-12-18T21:07:08.557Z,93.43
2023-12-18T21:09:36.481Z,93.87
2023-12-18T21:12:05.063Z,94.60
2023-12-18T21:14:35.315Z,95.23
2023-12-18T21:17:02.703Z,95.69
2023-12-18T21:19:30.038Z,96.38
2023-12-18T21:21:57.988Z,97.14
2023-12-18T21:24:25.625Z,97.95
2023-12-18T21:26:52.552Z,97.19
2023-12-18T21:29:19.032Z,96.58
2023-12-18T21:31:45.653Z,96.00
2023-12-18T21:34:12.223Z,94.42
2023-12-18T21:36:39.473Z,95.25
2023-12-18T21:39:07.020Z,95.17
2023-12-18T21:41:33.723Z,96.55
2023-12-18T21:44:00.657Z,96.64
2023-12-18T21:46:27.280Z,95.50
2023-12-18T21:48:54.477Z,96.18
2023-12-18T21:51:27.537Z,96.26
2023-12-18T21:54:01.410Z,94.32
2023-12-18T21:56:27.983Z,92.68
2023-12-18T21:58:54.528Z,91.84
2023-12-18T22:01:21.489Z,92.45
2023-12-18T22:03:48.195Z,91.78
2023-12-18T22:06:14.980Z,91.33
2023-12-18T22:08:41.499Z,91.40
2023-12-18T22:11:08.215Z,91.40
2023-12-18T22:13:34.797Z,91.39
2023-12-18T22:16:01.575Z,92.80
2023-12-18T22:18:28.189Z,92.96
2023-12-18T22:21:04.099Z,93.41
2023-12-18T22:23:35.032Z,93.52
2023-12-18T22:26:01.546Z,93.62
2023-12-18T22:28:28.188Z,92.56
2023-12-18T22:30:55.459Z,93.09
2023-12-18T22:33:22.324Z,92.49
2023-12-18T22:35:48.863Z,91.75
2023-12-18T22:38:15.366Z,92.39
2023-12-18T22:40:42.630Z,93.41
2023-12-18T22:43:09.331Z,94.16
2023-12-18T22:45:36.067Z,93.56
2023-12-18T22:48:02.757Z,94.58
2023-12-18T22:50:30.862Z,95.54
2023-12-18T22:52:57.378Z,95.49
2023-12-18T22:55:24.948Z,94.42
2023-12-18T22:57:51.775Z,95.20
2023-12-18T23:00:23.979Z,93.46
2023-12-18T23:02:50.622Z,93.35
2023-12-18T23:05:17.165Z,93.66
2023-12-18T23:07:43.912Z,95.11
2023-12-18T23:10:10.892Z,95.92
2023-12-18T23:12:37.435Z,95.44
2023-12-18T23:15:04.468Z,95.70
2023-12-18T23:17:32.089Z,96.97
2023-12-18T23:19:58.902Z,97.96
2023-12-18T23:22:25.797Z,97.79
2023-12-18T23:24:53.149Z,98.05
2023-12-18T23:27:19.832Z,98.43
2023-12-18T23:29:46.298Z,99.08
2023-12-18T23:32:13.132Z,98.49
2023-12-18T23:34:39.773Z,98.46
2023-12-18T23:37:15.963Z,98.71
2023-12-18T23:39:42.544Z,97.69
2023-12-18T23:42:09.094Z,98.81
2023-12-18T23:44:35.698Z,98.41
2023-12-18T23:47:11.132Z,98.90
2023-12-18T23:49:37.927Z,98.80
2023-12-18T23:52:04.782Z,97.80
2023-12-18T23:54:31.541Z,97.17
2023-12-18T23:56:58.243Z,96.71
2023-12-18T23:59:24.937Z,96.53
